createdAt,value
2022-11-30T00:02:44.575Z,1.41
2022-11-30T00:06:47.616Z,1.37
2022-11-30T00:10:50.600Z,1.36
2022-11-30T00:14:53.534Z,1.37
2022-11-30T00:18:57.940Z,1.36
2022-11-30T00:23:01.132Z,1.34
2022-11-30T00:27:04.249Z,1.25
2022-11-30T00:31:09.256Z,1.18
2022-11-30T00:35:13.730Z,1.15
2022-11-30T00:39:16.881Z,1.08
2022-11-30T00:43:19.968Z,1.04
2022-11-30T00:47:22.921Z,0.94
2022-11-30T00:51:27.362Z,0.86
2022-11-30T00:55:31.857Z,0.83
2022-11-30T00:59:34.861Z,0.76
2022-11-30T01:03:37.997Z,0.74
2022-11-30T01:07:42.334Z,0.73
2022-11-30T01:11:45.340Z,0.71
2022-11-30T01:15:48.457Z,0.71
2022-11-30T01:19:51.686Z,0.77
2022-11-30T01:23:56.681Z,0.80
2022-11-30T01:27:59.608Z,0.80
2022-11-30T01:32:02.515Z,0.84
2022-11-30T01:36:07.681Z,0.89
2022-11-30T01:40:13.482Z,0.96
2022-11-30T01:44:50.291Z,0.97
2022-11-30T01:48:59.454Z,0.99
2022-11-30T01:53:03.377Z,1.05
2022-11-30T01:57:13.504Z,1.12
2022-11-30T02:01:16.507Z,1.16
2022-11-30T02:05:19.912Z,1.16
2022-11-30T02:09:24.714Z,1.17
2022-11-30T02:14:03.509Z,1.17
2022-11-30T02:18:13.766Z,1.20
2022-11-30T02:22:32.490Z,1.20
2022-11-30T02:26:55.836Z,1.22
2022-11-30T02:31:04.432Z,1.20
2022-11-30T02:35:10.453Z,1.16
2022-11-30T02:39:13.492Z,1.17
2022-11-30T02:43:18.554Z,1.20
2022-11-30T02:47:26.658Z,1.23
2022-11-30T02:51:33.120Z,1.22
2022-11-30T02:55:36.415Z,1.11
2022-11-30T02:59:40.608Z,1.03
2022-11-30T03:03:44.968Z,0.97
2022-11-30T03:07:47.979Z,0.98
2022-11-30T03:11:51.408Z,1.04
2022-11-30T03:15:54.409Z,1.07
2022-11-30T03:19:58.738Z,1.12
2022-11-30T03:24:01.944Z,1.15
2022-11-30T03:28:04.923Z,1.19
2022-11-30T03:32:08.002Z,1.20
2022-11-30T03:36:13.409Z,1.18
2022-11-30T03:40:16.690Z,1.19
2022-11-30T03:44:20.205Z,1.17
2022-11-30T03:48:23.634Z,1.17
2022-11-30T03:52:28.000Z,1.15
2022-11-30T03:56:31.003Z,1.10
2022-11-30T04:00:33.940Z,1.06
2022-11-30T04:04:37.220Z,1.06
2022-11-30T04:08:42.885Z,1.08
2022-11-30T04:12:45.898Z,1.09
2022-11-30T04:16:48.822Z,1.14
2022-11-30T04:20:52.281Z,1.18
2022-11-30T04:24:56.943Z,1.21
2022-11-30T04:29:04.149Z,1.22
2022-11-30T04:33:07.689Z,1.25
2022-11-30T04:37:10.620Z,1.22
2022-11-30T04:41:15.065Z,1.25
2022-11-30T04:45:18.258Z,1.22
2022-11-30T04:49:21.216Z,1.23
2022-11-30T04:53:24.192Z,1.26
2022-11-30T04:57:28.568Z,1.28
2022-11-30T05:01:32.070Z,1.34
2022-11-30T05:05:35.138Z,1.36
2022-11-30T05:09:38.073Z,1.37
2022-11-30T05:13:42.395Z,1.35
2022-11-30T05:17:45.454Z,1.38
2022-11-30T05:21:48.413Z,1.38
2022-11-30T05:25:51.635Z,1.41
2022-11-30T05:29:56.003Z,1.42
2022-11-30T05:33:59.257Z,1.41
2022-11-30T05:38:02.543Z,1.43
2022-11-30T05:42:06.097Z,1.42
2022-11-30T05:46:11.549Z,1.43
2022-11-30T05:50:14.665Z,1.44
2022-11-30T05:54:18.250Z,1.46
2022-11-30T05:58:21.299Z,1.48
2022-11-30T06:02:28.390Z,1.48
2022-11-30T06:06:31.672Z,1.47
2022-11-30T06:10:34.689Z,1.45
2022-11-30T06:14:37.959Z,1.45
2022-11-30T06:18:42.539Z,1.48
2022-11-30T06:22:47.676Z,1.50
2022-11-30T06:26:50.790Z,1.52
2022-11-30T06:30:53.802Z,1.55
2022-11-30T06:34:58.210Z,1.59
2022-11-30T06:39:01.279Z,1.60
2022-11-30T06:43:04.319Z,1.60
2022-11-30T06:47:07.316Z,1.63
2022-11-30T06:51:12.053Z,1.66
2022-11-30T06:55:15.331Z,1.67
2022-11-30T06:59:18.396Z,1.66
2022-11-30T07:03:21.394Z,1.66
2022-11-30T07:07:25.951Z,1.67
2022-11-30T07:11:28.955Z,1.68
2022-11-30T07:15:32.008Z,1.66
2022-11-30T07:19:35.320Z,1.69
2022-11-30T07:23:57.334Z,1.69
2022-11-30T07:28:00.421Z,1.71
2022-11-30T07:32:03.633Z,1.72
2022-11-30T07:36:07.276Z,1.76
2022-11-30T07:40:12.539Z,1.83
2022-11-30T07:44:15.627Z,1.89
2022-11-30T07:48:18.662Z,1.94
2022-11-30T07:52:21.731Z,1.97
2022-11-30T07:56:27.414Z,1.99
2022-11-30T08:00:30.448Z,2.01
2022-11-30T08:04:33.583Z,2.05
2022-11-30T08:08:38.679Z,2.10
2022-11-30T08:12:43.325Z,2.13
2022-11-30T08:16:46.387Z,2.20
2022-11-30T08:20:50.234Z,2.23
2022-11-30T08:24:53.572Z,2.27
2022-11-30T08:28:59.526Z,2.34
2022-11-30T08:33:02.569Z,2.45
2022-11-30T08:37:05.700Z,2.45
2022-11-30T08:41:09.736Z,2.42
2022-11-30T08:45:14.421Z,2.40
2022-11-30T08:49:22.552Z,2.34
2022-11-30T08:53:26.378Z,2.41
2022-11-30T08:57:29.588Z,2.49
2022-11-30T09:01:34.008Z,2.56
2022-11-30T09:05:37.061Z,2.63
2022-11-30T09:09:40.275Z,2.67
2022-11-30T09:13:44.842Z,2.68
2022-11-30T09:17:49.214Z,2.73
2022-11-30T09:21:52.749Z,2.80
2022-11-30T09:25:57.519Z,3.07
2022-11-30T09:30:00.622Z,3.16
2022-11-30T09:34:05.129Z,3.20
2022-11-30T09:38:08.112Z,3.26
2022-11-30T09:42:42.892Z,3.34
2022-11-30T09:46:52.191Z,3.41
2022-11-30T09:51:01.317Z,3.47
2022-11-30T09:55:10.393Z,3.51
2022-11-30T09:59:20.542Z,3.56
2022-11-30T10:03:24.787Z,3.62
2022-11-30T10:07:46.255Z,3.56
2022-11-30T10:12:01.275Z,3.63
2022-11-30T10:16:16.161Z,3.72
2022-11-30T10:20:35.464Z,3.79
2022-11-30T10:24:55.772Z,3.80
2022-11-30T10:29:03.230Z,3.82
2022-11-30T10:33:15.378Z,3.83
2022-11-30T10:37:23.150Z,3.87
2022-11-30T10:41:33.112Z,3.93
2022-11-30T10:45:42.038Z,3.94
2022-11-30T10:49:49.459Z,4.02
2022-11-30T10:53:52.468Z,4.13
2022-11-30T10:58:01.770Z,4.21
2022-11-30T11:02:24.885Z,4.23
2022-11-30T11:06:27.971Z,4.28
2022-11-30T11:10:35.601Z,4.37
2022-11-30T11:14:39.924Z,4.41
2022-11-30T11:18:54.023Z,4.44
2022-11-30T11:22:57.496Z,4.49
2022-11-30T11:27:00.829Z,4.48
2022-11-30T11:31:19.115Z,4.48
2022-11-30T11:35:38.126Z,4.55
2022-11-30T11:39:41.192Z,4.61
2022-11-30T11:44:01.264Z,4.63
2022-11-30T11:48:08.544Z,4.62
2022-11-30T11:52:18.906Z,4.64
2022-11-30T11:56:28.322Z,4.65
2022-11-30T12:00:32.430Z,4.66
2022-11-30T12:04:46.688Z,4.67
2022-11-30T12:08:54.041Z,4.68
2022-11-30T12:12:57.174Z,4.71
2022-11-30T12:17:19.031Z,4.67
2022-11-30T12:21:34.147Z,4.67
2022-11-30T12:25:43.118Z,4.65
2022-11-30T12:29:52.357Z,4.64
2022-11-30T12:34:08.783Z,4.71
2022-11-30T12:38:27.232Z,4.76
2022-11-30T12:42:38.727Z,4.82
2022-11-30T12:46:50.764Z,4.90
2022-11-30T12:51:09.010Z,4.97
2022-11-30T12:55:28.329Z,5.00
2022-11-30T12:59:42.383Z,5.05
2022-11-30T13:03:59.129Z,5.12
2022-11-30T13:08:09.003Z,5.08
2022-11-30T13:12:17.916Z,5.03
2022-11-30T13:16:23.781Z,5.01
2022-11-30T13:20:34.799Z,4.93
2022-11-30T13:24:42.890Z,4.96
2022-11-30T13:29:08.628Z,4.95
2022-11-30T13:33:38.851Z,4.93
2022-11-30T13:37:41.907Z,5.00
2022-11-30T13:41:46.844Z,5.11
2022-11-30T13:46:02.895Z,5.21
2022-11-30T13:50:09.795Z,5.25
2022-11-30T13:54:38.449Z,5.25
2022-11-30T13:59:20.224Z,5.24
2022-11-30T14:03:29.966Z,5.21
2022-11-30T14:07:37.926Z,5.19
2022-11-30T14:11:45.721Z,5.27
2022-11-30T14:15:59.995Z,5.36
2022-11-30T14:20:16.524Z,5.41
2022-11-30T14:24:24.058Z,5.45
2022-11-30T14:28:39.954Z,5.48
2022-11-30T14:32:45.882Z,5.48
2022-11-30T14:36:54.101Z,5.52
2022-11-30T14:40:57.253Z,5.53
2022-11-30T14:45:00.649Z,5.56
2022-11-30T14:49:12.389Z,5.55
2022-11-30T14:53:26.865Z,5.56
2022-11-30T14:57:37.532Z,5.54
2022-11-30T15:01:41.070Z,5.55
2022-11-30T15:05:44.876Z,5.54
2022-11-30T15:09:52.476Z,5.52
2022-11-30T15:13:57.372Z,5.52
2022-11-30T15:18:09.332Z,5.49
2022-11-30T15:22:22.519Z,5.44
2022-11-30T15:26:32.125Z,5.43
2022-11-30T15:30:39.426Z,5.42
2022-11-30T15:34:52.220Z,5.42
2022-11-30T15:38:58.621Z,5.42
2022-11-30T15:43:03.622Z,5.39
2022-11-30T15:47:08.542Z,5.35
2022-11-30T15:51:26.232Z,5.32
2022-11-30T15:55:42.997Z,5.27
2022-11-30T16:00:06.091Z,5.23
2022-11-30T16:04:09.052Z,5.21
2022-11-30T16:08:17.640Z,5.21
2022-11-30T16:12:28.456Z,5.24
2022-11-30T16:16:33.955Z,5.19
2022-11-30T16:20:37.013Z,5.18
2022-11-30T16:24:40.240Z,5.18
2022-11-30T16:28:43.392Z,5.21
2022-11-30T16:32:48.297Z,5.20
2022-11-30T16:36:51.278Z,5.22
2022-11-30T16:40:55.727Z,5.18
2022-11-30T16:44:58.797Z,5.18
2022-11-30T16:49:03.376Z,5.13
2022-11-30T16:53:06.986Z,5.15
2022-11-30T16:57:10.162Z,5.20
2022-11-30T17:01:18.896Z,5.23
2022-11-30T17:05:23.914Z,5.25
2022-11-30T17:09:29.862Z,5.28
2022-11-30T17:13:32.922Z,5.33
2022-11-30T17:17:35.920Z,5.38
2022-11-30T17:21:42.213Z,5.31
2022-11-30T17:25:47.189Z,5.28
2022-11-30T17:29:50.407Z,5.32
2022-11-30T17:33:53.485Z,5.41
2022-11-30T17:37:57.967Z,5.31
2022-11-30T17:42:01.317Z,5.19
2022-11-30T17:46:06.492Z,5.10
2022-11-30T17:50:10.926Z,5.06
2022-11-30T17:54:15.489Z,5.02
2022-11-30T17:58:18.490Z,4.98
2022-11-30T18:02:21.569Z,4.96
2022-11-30T18:06:25.026Z,4.96
2022-11-30T18:10:29.637Z,4.96
2022-11-30T18:14:32.641Z,4.89
2022-11-30T18:18:35.670Z,4.85
2022-11-30T18:22:38.872Z,4.84
2022-11-30T18:26:43.266Z,4.82
2022-11-30T18:30:46.476Z,4.90
2022-11-30T18:34:50.302Z,4.91
2022-11-30T18:38:53.776Z,4.86
2022-11-30T18:42:58.128Z,4.82
2022-11-30T18:47:01.456Z,4.85
2022-11-30T18:51:11.632Z,4.87
2022-11-30T18:55:14.697Z,4.84
2022-11-30T18:59:19.288Z,4.84
2022-11-30T19:03:22.355Z,4.75
2022-11-30T19:12:05.899Z,4.62
2022-11-30T19:16:12.564Z,4.56
2022-11-30T19:20:15.943Z,4.53
2022-11-30T19:24:18.949Z,4.55
2022-11-30T19:28:22.034Z,4.61
2022-11-30T19:32:26.383Z,4.57
2022-11-30T19:36:31.435Z,4.50
2022-11-30T19:40:34.506Z,4.50
2022-11-30T19:44:37.774Z,4.50
2022-11-30T19:48:46.648Z,4.47
2022-11-30T19:52:50.128Z,4.44
2022-11-30T19:56:54.501Z,4.46
2022-11-30T20:00:57.791Z,4.47
2022-11-30T20:05:02.433Z,4.48
2022-11-30T20:09:06.943Z,4.47
2022-11-30T20:13:10.005Z,4.40
2022-11-30T20:17:13.255Z,4.38
2022-11-30T20:21:19.802Z,4.36
2022-11-30T20:25:22.908Z,4.29
2022-11-30T20:29:26.332Z,4.21
2022-11-30T20:33:29.475Z,4.16
2022-11-30T20:37:34.411Z,4.12
2022-11-30T20:41:37.856Z,4.07
2022-11-30T20:45:40.950Z,4.05
2022-11-30T20:49:44.439Z,4.01
2022-11-30T20:53:49.029Z,3.98
2022-11-30T20:57:52.234Z,3.91
2022-11-30T21:01:56.799Z,3.90
2022-11-30T21:05:59.881Z,3.82
2022-11-30T21:10:04.928Z,3.75
2022-11-30T21:14:08.230Z,3.76
2022-11-30T21:18:12.748Z,3.71
2022-11-30T21:22:15.732Z,3.66
2022-11-30T21:26:22.686Z,3.61
2022-11-30T21:30:25.872Z,3.58
2022-11-30T21:34:28.928Z,3.54
2022-11-30T21:38:32.157Z,3.51
2022-11-30T21:42:36.612Z,3.47
2022-11-30T21:46:40.029Z,3.48
2022-11-30T21:50:43.005Z,3.39
2022-11-30T21:54:48.881Z,3.35
2022-11-30T21:58:54.248Z,3.32
2022-11-30T22:02:57.527Z,3.32
2022-11-30T22:07:00.526Z,3.27
2022-11-30T22:11:05.283Z,3.20
2022-11-30T22:15:11.201Z,3.19
2022-11-30T22:19:14.874Z,3.15
2022-11-30T22:23:17.902Z,3.10
2022-11-30T22:27:20.961Z,3.08
2022-11-30T22:31:28.207Z,3.08
2022-11-30T22:35:31.224Z,3.03
2022-11-30T22:39:34.249Z,3.00
2022-11-30T22:43:37.576Z,2.98
2022-11-30T22:47:41.939Z,3.01
2022-11-30T22:51:45.429Z,3.06
2022-11-30T22:55:48.586Z,3.00
2022-11-30T22:59:51.874Z,2.92
2022-11-30T23:03:58.531Z,2.88
2022-11-30T23:08:01.684Z,2.83
2022-11-30T23:12:05.107Z,2.84
2022-11-30T23:16:09.285Z,2.88
2022-11-30T23:20:14.824Z,2.87
2022-11-30T23:24:20.643Z,2.85
2022-11-30T23:28:23.722Z,2.86
2022-11-30T23:32:26.727Z,2.81
2022-11-30T23:36:31.064Z,2.74
2022-11-30T23:40:34.144Z,2.70
2022-11-30T23:44:37.094Z,2.67
2022-11-30T23:48:40.327Z,2.64
2022-11-30T23:52:44.877Z,2.52
2022-11-30T23:56:48.568Z,2.50
